Time;durP1;ratioP1;P1;durP2;ratioP2;P2;SDS_P1;SDS_P2;PMS_P1;PMS_P2;Temp;Humidity;BMP_temperature;BMP_pressure;BME280_temperature;BME280_humidity;BME280_pressure;Samples;Min_cycle;Max_cycle;Signal;HPM_P1;HPM_P2
2023/01/13 00:00:44;;;;;;;2.88;1.60;;;13.00;81.00;;;;;;5068853;28;20032;-84
2023/01/13 00:03:10;;;;;;;2.85;1.67;;;13.00;81.00;;;;;;5081916;28;20481;-88
2023/01/13 00:05:37;;;;;;;2.30;1.58;;;13.00;81.00;;;;;;5077848;28;20094;-85
2023/01/13 00:08:05;;;;;;;1.90;1.50;;;13.00;81.00;;;;;;5080744;28;20032;-85
2023/01/13 00:10:32;;;;;;;2.35;1.42;;;13.00;81.00;;;;;;5073129;28;20043;-85
2023/01/13 00:12:58;;;;;;;2.25;1.50;;;12.90;80.90;;;;;;5064014;28;20048;-85
2023/01/13 00:15:25;;;;;;;2.92;1.40;;;13.00;81.00;;;;;;5077199;28;20028;-85
2023/01/13 00:17:50;;;;;;;2.92;1.63;;;13.00;81.00;;;;;;5076018;28;20035;-85
2023/01/13 00:20:16;;;;;;;2.08;1.50;;;13.00;81.00;;;;;;5081886;28;20031;-85
2023/01/13 00:22:42;;;;;;;5.05;1.90;;;12.90;80.90;;;;;;5080694;28;20416;-87
2023/01/13 00:25:08;;;;;;;2.67;1.60;;;12.90;80.90;;;;;;5083660;28;20111;-85
2023/01/13 00:27:34;;;;;;;3.95;1.58;;;12.90;81.00;;;;;;5085385;28;20095;-85
2023/01/13 00:30:00;;;;;;;3.30;1.88;;;12.90;81.00;;;;;;5083158;28;20032;-84
2023/01/13 00:32:27;;;;;;;4.00;2.00;;;12.90;81.00;;;;;;5040192;28;20029;-85
2023/01/13 00:34:53;;;;;;;3.17;1.60;;;12.90;81.00;;;;;;5092845;28;20058;-85
2023/01/13 00:37:19;;;;;;;4.80;2.13;;;12.90;81.00;;;;;;5084256;28;20076;-85
2023/01/13 00:39:45;;;;;;;4.32;1.77;;;12.90;81.00;;;;;;5094214;28;20035;-86
2023/01/13 00:44:55;;;;;;;4.55;1.67;;;12.80;81.00;;;;;;5101983;28;20048;-84
2023/01/13 00:47:22;;;;;;;3.60;1.80;;;12.80;80.90;;;;;;5056090;28;20021;-85
2023/01/13 00:49:49;;;;;;;2.88;1.40;;;12.80;80.90;;;;;;5072709;28;20485;-84
2023/01/13 00:52:15;;;;;;;2.83;1.40;;;12.80;81.00;;;;;;5057885;28;20090;-85
2023/01/13 00:54:41;;;;;;;2.88;1.50;;;12.80;81.00;;;;;;5067537;28;20126;-85
2023/01/13 00:57:06;;;;;;;4.43;1.80;;;12.80;81.00;;;;;;5079899;28;20063;-85
2023/01/13 00:59:32;;;;;;;1.70;1.58;;;12.70;80.90;;;;;;5078648;28;20064;-85
2023/01/13 01:01:58;;;;;;;3.80;1.73;;;12.70;80.90;;;;;;5060897;28;20024;-84
2023/01/13 01:04:24;;;;;;;3.42;1.70;;;12.70;80.90;;;;;;5085702;28;20484;-85
2023/01/13 01:06:50;;;;;;;3.78;1.92;;;12.70;80.90;;;;;;5052879;28;20099;-85
2023/01/13 01:09:16;;;;;;;5.60;1.85;;;12.60;80.90;;;;;;5075852;28;20040;-86
2023/01/13 01:11:43;;;;;;;4.70;1.73;;;12.60;80.90;;;;;;5059435;28;20032;-87
2023/01/13 01:14:12;;;;;;;4.15;1.73;;;12.60;80.90;;;;;;5065988;28;20488;-87
2023/01/13 01:16:40;;;;;;;3.45;1.70;;;12.60;80.90;;;;;;5057831;28;20074;-84
2023/01/13 01:19:06;;;;;;;7.18;1.80;;;12.60;80.90;;;;;;5073365;28;20035;-84
2023/01/13 01:21:32;;;;;;;3.85;1.50;;;12.50;80.80;;;;;;5078052;28;20020;-85
2023/01/13 01:24:00;;;;;;;4.72;1.75;;;12.60;80.90;;;;;;5083686;28;20502;-86
2023/01/13 01:26:30;;;;;;;5.13;1.80;;;12.50;80.80;;;;;;5044041;28;20024;-86
2023/01/13 01:28:55;;;;;;;9.05;2.58;;;12.50;80.80;;;;;;5078197;28;20068;-85
2023/01/13 01:31:24;;;;;;;4.32;1.52;;;12.50;80.80;;;;;;5082404;28;20073;-86
2023/01/13 01:33:51;;;;;;;7.95;2.00;;;12.50;80.80;;;;;;5079392;28;20062;-88
2023/01/13 01:36:19;;;;;;;5.40;1.90;;;12.50;80.80;;;;;;5064627;28;20051;-85
2023/01/13 01:38:45;;;;;;;4.45;1.77;;;12.40;80.70;;;;;;5060358;28;20028;-87
2023/01/13 01:41:14;;;;;;;5.72;2.00;;;12.50;80.80;;;;;;5072201;28;20056;-88
2023/01/13 01:43:58;;;;;;;4.72;1.90;;;12.40;80.70;;;;;;5062069;28;20025;-86
2023/01/13 01:46:38;;;;;;;5.47;1.83;;;12.40;80.70;;;;;;5073131;28;20055;-88
2023/01/13 01:49:23;;;;;;;4.85;1.80;;;12.40;80.70;;;;;;5073647;28;20028;-84
2023/01/13 01:51:53;;;;;;;3.97;1.73;;;12.40;80.70;;;;;;5076755;28;20031;-86
2023/01/13 01:54:25;;;;;;;4.38;1.70;;;12.30;80.70;;;;;;5067301;28;20024;-86
2023/01/13 01:56:51;;;;;;;3.90;1.98;;;12.30;80.70;;;;;;5069304;28;20090;-86
2023/01/13 01:59:18;;;;;;;2.72;1.60;;;12.30;80.70;;;;;;5075151;28;20043;-87
2023/01/13 02:01:44;;;;;;;4.82;2.47;;;12.30;80.70;;;;;;5061480;28;20385;-86
2023/01/13 02:04:16;;;;;;;4.72;1.90;;;12.30;80.70;;;;;;5078296;28;20025;-85
2023/01/13 02:06:43;;;;;;;2.92;1.77;;;12.30;80.70;;;;;;5093739;28;20539;-86
2023/01/13 02:09:09;;;;;;;4.60;1.80;;;12.20;80.70;;;;;;5078910;28;20047;-87
2023/01/13 02:14:24;;;;;;;4.43;1.88;;;12.20;80.70;;;;;;5073650;28;20070;-85
2023/01/13 02:17:09;;;;;;;4.55;1.90;;;12.20;80.60;;;;;;5092186;28;20020;-86
2023/01/13 02:20:03;;;;;;;5.35;2.35;;;12.20;80.70;;;;;;5076943;28;20032;-85
2023/01/13 02:23:03;;;;;;;5.05;1.85;;;12.10;80.70;;;;;;5076229;28;20020;-86
2023/01/13 02:25:50;;;;;;;3.53;1.67;;;12.10;80.70;;;;;;5074804;28;20476;-85
2023/01/13 02:31:40;;;;;;;4.05;1.80;;;12.10;80.70;;;;;;5074827;28;20020;-86
2023/01/13 02:31:43;;;;;;;4.45;1.70;;;12.10;80.70;;;;;;5079581;28;20052;-85
2023/01/13 02:34:38;;;;;;;5.55;2.17;;;12.10;81.30;;;;;;5074703;28;20032;-86
2023/01/13 02:37:19;;;;;;;7.25;2.20;;;12.00;80.70;;;;;;5068534;28;20032;-84
2023/01/13 02:39:44;;;;;;;6.28;1.98;;;12.00;80.70;;;;;;5089773;28;20178;-85
2023/01/13 02:45:34;;;;;;;4.20;1.80;;;12.00;80.70;;;;;;5046002;28;20024;-86
2023/01/13 02:48:05;;;;;;;5.28;1.63;;;12.00;80.70;;;;;;5074246;28;20089;-84
2023/01/13 02:50:39;;;;;;;4.00;1.65;;;12.00;80.80;;;;;;5090977;28;20534;-85
2023/01/13 02:53:14;;;;;;;4.25;1.98;;;11.90;80.70;;;;;;5071152;28;20023;-89
2023/01/13 02:55:45;;;;;;;3.55;1.77;;;11.90;80.80;;;;;;5078829;28;20124;-85
2023/01/13 02:58:16;;;;;;;4.75;2.00;;;11.90;80.70;;;;;;5077412;28;20060;-85
2023/01/13 03:00:43;;;;;;;5.28;1.92;;;11.90;80.70;;;;;;5061802;28;20024;-89
2023/01/13 03:03:09;;;;;;;3.42;1.50;;;11.90;80.70;;;;;;5060480;28;20016;-87
2023/01/13 03:05:36;;;;;;;5.45;1.90;;;11.90;80.80;;;;;;5082702;28;20032;-86
2023/01/13 03:08:31;;;;;;;5.60;1.77;;;11.80;80.70;;;;;;5075624;28;20539;-85
2023/01/13 03:11:07;;;;;;;4.17;1.87;;;11.80;80.70;;;;;;5095446;28;20476;-85
2023/01/13 03:13:54;;;;;;;6.07;2.08;;;11.80;80.70;;;;;;5061740;28;20123;-84
2023/01/13 03:16:49;;;;;;;5.68;2.10;;;11.80;80.70;;;;;;5080041;28;20063;-89
2023/01/13 03:19:34;;;;;;;4.03;1.83;;;11.80;80.70;;;;;;5097480;28;20028;-85
2023/01/13 03:22:34;;;;;;;5.03;1.75;;;11.80;80.80;;;;;;5086333;28;20091;-86
2023/01/13 03:25:12;;;;;;;4.47;1.90;;;11.70;80.80;;;;;;5048806;28;20036;-84
2023/01/13 03:28:01;;;;;;;4.03;1.90;;;11.70;80.80;;;;;;5073244;28;20078;-85
2023/01/13 03:30:32;;;;;;;3.65;1.70;;;11.70;80.80;;;;;;5078464;28;20500;-90
2023/01/13 03:33:16;;;;;;;4.78;1.75;;;11.70;80.80;;;;;;5080883;28;20756;-86
2023/01/13 03:35:50;;;;;;;5.05;1.88;;;11.70;80.80;;;;;;5075814;28;20077;-85
2023/01/13 03:38:22;;;;;;;3.28;1.70;;;11.70;80.80;;;;;;5080125;28;20035;-86
2023/01/13 03:40:53;;;;;;;3.15;1.50;;;11.70;80.80;;;;;;5082204;28;20109;-85
2023/01/13 03:46:28;;;;;;;4.53;1.80;;;11.70;80.80;;;;;;5093993;28;20503;-86
2023/01/13 03:48:57;;;;;;;4.30;2.03;;;11.70;80.70;;;;;;5063928;28;20024;-86
2023/01/13 03:51:28;;;;;;;6.15;2.00;;;11.70;80.70;;;;;;5073004;28;20020;-85
2023/01/13 03:53:59;;;;;;;5.20;1.92;;;11.60;80.70;;;;;;5089767;28;20024;-85
2023/01/13 03:56:49;;;;;;;2.80;1.63;;;11.70;80.70;;;;;;5074292;28;20048;-85
2023/01/13 03:59:29;;;;;;;2.97;1.65;;;11.60;80.70;;;;;;5094740;28;20062;-85
2023/01/13 04:02:34;;;;;;;2.85;1.52;;;11.60;80.70;;;;;;5072567;28;20106;-86
2023/01/13 04:05:03;;;;;;;4.18;1.80;;;11.60;80.70;;;;;;5059316;28;20040;-85
2023/01/13 04:07:29;;;;;;;3.80;1.92;;;11.60;80.60;;;;;;5085744;28;20020;-87
2023/01/13 04:09:57;;;;;;;5.65;2.08;;;11.60;80.70;;;;;;5094512;28;20038;-85
2023/01/13 04:15:26;;;;;;;5.15;1.90;;;11.60;80.80;;;;;;5095813;28;20047;-86
2023/01/13 04:17:53;;;;;;;2.80;1.63;;;11.50;80.70;;;;;;5102600;28;20028;-86
2023/01/13 04:20:20;;;;;;;4.50;2.28;;;11.50;80.70;;;;;;5080873;28;20035;-85
2023/01/13 04:22:46;;;;;;;3.03;1.80;;;11.50;80.70;;;;;;5096617;28;20042;-85
2023/01/13 04:25:11;;;;;;;2.83;1.63;;;11.50;80.70;;;;;;5085166;28;20028;-86
2023/01/13 04:27:37;;;;;;;4.03;1.77;;;11.50;80.70;;;;;;5062206;28;20042;-85
2023/01/13 04:30:04;;;;;;;4.15;1.70;;;11.50;80.70;;;;;;5077265;28;20035;-86
2023/01/13 04:32:29;;;;;;;2.85;1.48;;;11.50;80.70;;;;;;5062186;28;20024;-84
2023/01/13 04:34:55;;;;;;;4.32;1.80;;;11.50;80.70;;;;;;5068771;28;20041;-84
2023/01/13 04:37:21;;;;;;;4.50;1.98;;;11.50;80.80;;;;;;5045087;28;20498;-84
2023/01/13 04:39:47;;;;;;;4.32;2.05;;;11.50;80.80;;;;;;5060203;28;20032;-84
2023/01/13 04:42:13;;;;;;;5.28;1.80;;;11.50;80.80;;;;;;5048671;28;20093;-84
2023/01/13 04:44:38;;;;;;;3.97;1.60;;;11.50;80.80;;;;;;5082657;28;20028;-85
2023/01/13 04:47:04;;;;;;;3.63;1.92;;;11.40;80.70;;;;;;5041823;28;20036;-85
2023/01/13 04:49:30;;;;;;;3.00;1.70;;;11.40;80.80;;;;;;5083302;28;20077;-85
2023/01/13 04:51:56;;;;;;;3.60;1.55;;;11.40;80.70;;;;;;5103116;28;20061;-85
2023/01/13 04:54:22;;;;;;;4.47;1.63;;;11.40;80.70;;;;;;5072846;28;20093;-84
2023/01/13 04:56:48;;;;;;;3.00;1.58;;;11.40;80.70;;;;;;5069372;28;20426;-83
2023/01/13 04:59:14;;;;;;;4.70;1.77;;;11.40;80.70;;;;;;5065577;28;20035;-85
2023/01/13 05:01:39;;;;;;;1.77;1.33;;;11.40;80.70;;;;;;5063000;28;20055;-86
2023/01/13 05:04:07;;;;;;;2.70;1.48;;;11.40;80.70;;;;;;5065617;28;20058;-84
2023/01/13 05:06:33;;;;;;;1.88;1.30;;;11.40;80.70;;;;;;5068739;28;20021;-84
2023/01/13 05:08:58;;;;;;;2.20;1.45;;;11.40;80.70;;;;;;5062757;28;20396;-84
2023/01/13 05:17:01;;;;;;;4.13;1.77;;;11.40;80.70;;;;;;5071369;28;20170;-87
2023/01/13 05:19:31;;;;;;;2.80;1.48;;;11.30;80.70;;;;;;5093310;28;20028;-85
2023/01/13 05:27:31;;;;;;;2.83;1.40;;;11.20;80.60;;;;;;5084727;28;19916;-86
2023/01/13 05:29:56;;;;;;;2.08;1.20;;;11.20;80.50;;;;;;5063187;28;20032;-86
2023/01/13 05:32:23;;;;;;;1.67;1.10;;;11.20;80.60;;;;;;5060766;28;20065;-86
2023/01/13 05:34:49;;;;;;;2.28;1.42;;;11.20;80.70;;;;;;5088888;28;20027;-85
2023/01/13 05:37:15;;;;;;;1.83;1.20;;;11.20;80.70;;;;;;5078227;28;20595;-85
2023/01/13 05:45:24;;;;;;;3.35;1.67;;;11.20;80.70;;;;;;5076126;28;20115;-86
2023/01/13 05:47:50;;;;;;;2.55;1.30;;;11.20;80.60;;;;;;5079527;28;20031;-86
2023/01/13 05:50:16;;;;;;;2.38;1.35;;;11.20;80.70;;;;;;5066709;28;20051;-85
2023/01/13 05:52:42;;;;;;;2.22;1.30;;;11.20;80.70;;;;;;5056506;28;20037;-85
2023/01/13 05:55:09;;;;;;;1.70;1.20;;;11.10;80.60;;;;;;5079966;28;20024;-87
2023/01/13 05:57:35;;;;;;;2.25;1.42;;;11.10;80.60;;;;;;5068577;28;20023;-87
2023/01/13 06:00:01;;;;;;;1.27;1.15;;;11.10;80.60;;;;;;5082877;28;20029;-86
2023/01/13 06:02:37;;;;;;;2.38;1.30;;;11.10;80.70;;;;;;5083110;28;20039;-85
2023/01/13 06:05:03;;;;;;;4.43;1.55;;;11.10;80.60;;;;;;5040996;28;20029;-85
2023/01/13 06:07:29;;;;;;;2.28;1.40;;;11.10;80.60;;;;;;5062717;28;20076;-85
2023/01/13 06:09:55;;;;;;;3.13;1.48;;;11.10;80.60;;;;;;5075254;28;20473;-84
2023/01/13 06:12:20;;;;;;;2.42;1.45;;;11.10;80.60;;;;;;5058291;28;20024;-85
2023/01/13 06:14:46;;;;;;;3.22;1.50;;;11.10;80.60;;;;;;5079422;28;20024;-85
2023/01/13 06:17:14;;;;;;;3.42;1.63;;;11.10;81.20;;;;;;5078400;28;20115;-86
2023/01/13 06:19:41;;;;;;;2.53;1.40;;;11.10;80.60;;;;;;5085376;28;20028;-89
2023/01/13 06:22:12;;;;;;;4.05;1.60;;;11.10;80.60;;;;;;5059844;28;20383;-86
2023/01/13 06:24:39;;;;;;;1.77;1.30;;;11.10;80.60;;;;;;5079277;28;20034;-86
2023/01/13 06:27:07;;;;;;;2.85;1.50;;;11.10;80.60;;;;;;5069471;28;20055;-86
2023/01/13 06:29:33;;;;;;;2.25;1.33;;;11.10;80.60;;;;;;5071704;28;20078;-88
2023/01/13 06:32:03;;;;;;;6.38;2.15;;;11.10;80.60;;;;;;5080356;28;20028;-85
2023/01/13 06:34:29;;;;;;;2.45;1.60;;;11.10;80.60;;;;;;5057418;28;20028;-85
2023/01/13 06:36:55;;;;;;;3.28;1.48;;;11.10;80.60;;;;;;5059618;28;20086;-84
2023/01/13 06:39:26;;;;;;;3.78;1.67;;;11.10;80.60;;;;;;5074917;28;20036;-84
2023/01/13 06:44:38;;;;;;;1.88;1.20;;;11.00;80.70;;;;;;5082684;28;20375;-85
2023/01/13 06:47:08;;;;;;;3.70;1.88;;;11.00;80.50;;;;;;5055236;28;20024;-85
2023/01/13 06:49:34;;;;;;;1.95;1.55;;;11.00;80.60;;;;;;5066271;28;20036;-87
2023/01/13 06:51:59;;;;;;;3.22;1.42;;;11.00;80.60;;;;;;5058291;28;20034;-86
2023/01/13 06:54:25;;;;;;;2.80;1.65;;;11.00;80.60;;;;;;5077666;28;20024;-87
2023/01/13 06:56:51;;;;;;;2.50;1.40;;;11.00;80.60;;;;;;5041666;28;20035;-86
2023/01/13 06:59:17;;;;;;;3.33;1.55;;;11.00;80.60;;;;;;5061041;28;20028;-86
2023/01/13 07:01:43;;;;;;;2.70;1.42;;;11.00;80.60;;;;;;5058893;28;20031;-84
2023/01/13 07:04:08;;;;;;;3.65;1.50;;;10.90;80.50;;;;;;5058354;28;20517;-87
2023/01/13 07:06:34;;;;;;;2.60;1.45;;;11.00;80.60;;;;;;5075858;28;20034;-86
2023/01/13 07:09:00;;;;;;;2.83;1.45;;;11.00;80.60;;;;;;5058490;28;20032;-87
2023/01/13 07:11:26;;;;;;;5.22;1.98;;;11.00;80.60;;;;;;5071160;28;20028;-85
2023/01/13 07:16:36;;;;;;;3.40;1.50;;;10.90;80.60;;;;;;5060387;28;20066;-87
2023/01/13 07:19:02;;;;;;;2.60;1.50;;;10.90;80.50;;;;;;5077490;28;20028;-88
2023/01/13 07:21:28;;;;;;;2.63;1.63;;;10.90;80.60;;;;;;5066206;28;20036;-87
2023/01/13 07:23:53;;;;;;;4.20;2.00;;;10.90;80.60;;;;;;5061808;28;20027;-87
2023/01/13 07:26:19;;;;;;;4.35;1.73;;;10.90;80.60;;;;;;5062571;28;20028;-88
2023/01/13 07:28:45;;;;;;;2.58;1.60;;;10.90;80.60;;;;;;5057563;28;20446;-87
2023/01/13 07:31:16;;;;;;;3.20;1.55;;;10.90;80.60;;;;;;5043199;28;20028;-87
2023/01/13 07:33:42;;;;;;;3.58;1.40;;;10.90;80.60;;;;;;5073359;28;20024;-82
2023/01/13 07:36:08;;;;;;;3.33;1.60;;;10.90;80.60;;;;;;5063086;28;20093;-87
2023/01/13 07:38:35;;;;;;;2.88;1.60;;;10.90;80.60;;;;;;5057571;28;20131;-87
2023/01/13 07:43:46;;;;;;;4.93;1.73;;;10.90;80.60;;;;;;5092773;28;20110;-85
2023/01/13 07:46:12;;;;;;;3.42;1.40;;;10.90;80.60;;;;;;5081883;28;20036;-86
2023/01/13 07:48:40;;;;;;;3.97;1.63;;;10.80;80.50;;;;;;5071889;28;20111;-86
2023/01/13 07:51:10;;;;;;;3.38;1.60;;;10.80;80.50;;;;;;5076100;28;20109;-86
2023/01/13 07:53:36;;;;;;;3.85;1.90;;;10.80;80.60;;;;;;5082179;28;20023;-87
2023/01/13 07:56:04;;;;;;;3.95;1.75;;;10.80;80.60;;;;;;5098318;28;20035;-86
2023/01/13 07:58:32;;;;;;;3.67;1.50;;;10.80;80.60;;;;;;5094027;28;20052;-87
2023/01/13 08:00:58;;;;;;;4.20;1.40;;;10.80;80.60;;;;;;5081162;28;20032;-85
2023/01/13 08:03:25;;;;;;;3.33;1.92;;;10.80;80.50;;;;;;5100907;28;20028;-87
2023/01/13 08:05:51;;;;;;;3.10;1.50;;;10.80;80.50;;;;;;5083362;28;20119;-86
2023/01/13 08:08:17;;;;;;;3.72;1.60;;;10.80;80.50;;;;;;5102975;28;20055;-85
2023/01/13 08:10:43;;;;;;;6.35;1.65;;;10.80;80.50;;;;;;5061168;28;20024;-85
2023/01/13 08:13:16;;;;;;;4.82;1.92;;;10.80;80.50;;;;;;5074193;28;20056;-87
2023/01/13 08:15:42;;;;;;;4.28;1.65;;;10.80;80.50;;;;;;5078139;28;20036;-85
2023/01/13 08:18:08;;;;;;;3.63;1.52;;;10.80;80.50;;;;;;5075292;28;20526;-85
2023/01/13 08:20:34;;;;;;;3.88;1.58;;;10.80;80.50;;;;;;5076127;28;20536;-85
2023/01/13 08:23:00;;;;;;;4.00;1.75;;;10.80;80.50;;;;;;5059897;28;20032;-85
2023/01/13 08:25:27;;;;;;;2.88;1.65;;;10.80;80.50;;;;;;5078678;28;20357;-85
2023/01/13 08:27:54;;;;;;;4.13;1.60;;;10.80;80.50;;;;;;5061925;28;20016;-85
2023/01/13 08:30:20;;;;;;;4.70;1.88;;;10.80;80.50;;;;;;5059570;28;20039;-84
2023/01/13 08:32:49;;;;;;;3.42;1.70;;;10.80;80.40;;;;;;5060569;28;20154;-85
2023/01/13 08:35:16;;;;;;;3.90;1.65;;;10.80;80.50;;;;;;5079247;28;20039;-84
2023/01/13 08:37:43;;;;;;;3.97;1.80;;;10.80;80.50;;;;;;5080992;28;20027;-85
2023/01/13 08:40:11;;;;;;;5.40;1.65;;;10.80;81.20;;;;;;5077418;28;20038;-85
2023/01/13 08:42:37;;;;;;;4.57;1.92;;;10.80;80.50;;;;;;5056423;28;20028;-84
2023/01/13 08:45:03;;;;;;;3.85;1.58;;;10.80;80.50;;;;;;5059156;28;20038;-87
2023/01/13 08:47:29;;;;;;;5.18;2.17;;;10.80;80.50;;;;;;5100048;28;20035;-81
2023/01/13 08:49:55;;;;;;;5.35;1.88;;;10.80;80.40;;;;;;5075022;28;20028;-84
2023/01/13 08:52:21;;;;;;;4.57;1.83;;;10.80;80.40;;;;;;5077884;28;20024;-85
2023/01/13 08:54:47;;;;;;;4.88;1.80;;;10.80;80.40;;;;;;5074492;28;20077;-85
2023/01/13 08:57:14;;;;;;;3.88;1.90;;;10.80;80.40;;;;;;5065408;28;20031;-86
2023/01/13 08:59:43;;;;;;;3.53;1.70;;;10.80;80.40;;;;;;5062820;28;20024;-88
2023/01/13 09:02:13;;;;;;;3.35;1.58;;;10.80;80.40;;;;;;5058296;28;20500;-86
2023/01/13 09:04:39;;;;;;;2.85;1.80;;;10.80;80.40;;;;;;5088432;28;20024;-86
2023/01/13 09:07:05;;;;;;;3.58;1.55;;;10.80;80.40;;;;;;5079134;28;20544;-85
2023/01/13 09:09:30;;;;;;;2.08;1.40;;;10.80;80.40;;;;;;5063238;28;20119;-87
2023/01/13 09:14:41;;;;;;;3.85;1.60;;;10.80;80.40;;;;;;5081081;28;20044;-86
2023/01/13 09:17:06;;;;;;;3.63;1.73;;;10.80;80.40;;;;;;5074663;28;20066;-89
2023/01/13 09:19:35;;;;;;;6.15;1.95;;;10.80;80.40;;;;;;5062950;28;20611;-87
2023/01/13 09:22:02;;;;;;;5.35;2.00;;;10.80;80.40;;;;;;5073704;28;20016;-86
2023/01/13 09:24:28;;;;;;;5.72;1.88;;;10.80;80.40;;;;;;5056947;28;20534;-87
2023/01/13 09:26:54;;;;;;;6.35;1.98;;;10.80;80.40;;;;;;5075750;28;20031;-86
2023/01/13 09:29:20;;;;;;;4.32;1.63;;;10.80;80.40;;;;;;5078574;28;20105;-87
2023/01/13 09:31:47;;;;;;;4.93;2.00;;;10.80;81.00;;;;;;5060340;28;20046;-88
2023/01/13 09:37:04;;;;;;;4.57;1.75;;;10.80;80.30;;;;;;5075940;28;20028;-87
2023/01/13 09:39:32;;;;;;;3.92;1.70;;;10.80;80.30;;;;;;5060401;28;20034;-86
2023/01/13 09:45:03;;;;;;;3.50;1.63;;;10.90;80.40;;;;;;5074082;28;20032;-87
2023/01/13 09:47:58;;;;;;;2.90;1.50;;;10.90;80.40;;;;;;5079281;28;20059;-87
2023/01/13 09:50:46;;;;;;;4.22;1.60;;;10.90;80.40;;;;;;5096353;28;20542;-87
2023/01/13 09:53:21;;;;;;;7.30;2.30;;;10.90;80.30;;;;;;5061027;28;20147;-87
2023/01/13 09:55:47;;;;;;;4.50;2.00;;;10.80;80.30;;;;;;5094281;28;20016;-88
2023/01/13 09:58:18;;;;;;;5.53;2.20;;;10.90;80.40;;;;;;5076223;28;20043;-88
2023/01/13 10:01:06;;;;;;;5.50;2.00;;;10.90;80.40;;;;;;5086702;28;20110;-87
2023/01/13 10:03:34;;;;;;;2.70;1.55;;;10.90;80.40;;;;;;5069074;28;20040;-87
2023/01/13 10:06:12;;;;;;;4.20;1.67;;;10.90;80.40;;;;;;5064112;28;20023;-87
2023/01/13 10:08:43;;;;;;;5.22;1.85;;;10.90;80.40;;;;;;5079132;28;20039;-88
2023/01/13 10:14:33;;;;;;;3.33;1.60;;;10.90;80.40;;;;;;5091823;28;20044;-85
2023/01/13 10:17:02;;;;;;;5.38;2.05;;;10.90;80.30;;;;;;5089804;28;20024;-88
2023/01/13 10:19:36;;;;;;;7.03;2.10;;;11.00;80.40;;;;;;5074057;28;20059;-87
2023/01/13 10:22:17;;;;;;;3.40;1.50;;;10.90;80.40;;;;;;5090536;28;20031;-89
2023/01/13 10:25:01;;;;;;;3.78;1.83;;;10.90;80.40;;;;;;5077735;28;20106;-86
2023/01/13 10:27:52;;;;;;;4.75;2.00;;;11.00;80.40;;;;;;5072595;28;20118;-90
2023/01/13 10:30:31;;;;;;;4.63;1.98;;;10.90;80.30;;;;;;5056368;28;20072;-85
2023/01/13 10:33:16;;;;;;;2.95;1.80;;;10.90;80.30;;;;;;5088962;28;20016;-86
2023/01/13 10:36:02;;;;;;;3.58;1.70;;;11.00;80.40;;;;;;5075530;28;20027;-85
2023/01/13 10:38:38;;;;;;;6.88;2.13;;;11.00;80.40;;;;;;5059342;28;20080;-87
2023/01/13 10:41:24;;;;;;;5.63;1.90;;;11.00;80.30;;;;;;5072441;28;20111;-87
2023/01/13 10:43:52;;;;;;;;;;;11.00;80.40;;;;;;5074526;28;20058;-86
2023/01/13 10:46:19;;;;;;;2.67;1.70;;;10.90;80.20;;;;;;5074709;28;19958;-85
2023/01/13 10:48:56;;;;;;;3.67;1.63;;;11.00;80.20;;;;;;5076438;28;20048;-84
2023/01/13 10:51:27;;;;;;;3.95;1.70;;;11.00;80.30;;;;;;5077913;28;20055;-86
2023/01/13 10:54:12;;;;;;;4.45;1.73;;;11.00;80.30;;;;;;5077639;28;20028;-84
2023/01/13 10:56:44;;;;;;;5.00;1.90;;;11.00;80.40;;;;;;5076393;28;20040;-85
2023/01/13 10:59:22;;;;;;;2.33;1.50;;;11.00;80.40;;;;;;5071400;28;20049;-88
2023/01/13 11:02:22;;;;;;;5.60;2.10;;;11.00;80.40;;;;;;5055213;28;20039;-86
2023/01/13 11:05:08;;;;;;;4.80;1.70;;;11.00;80.40;;;;;;5065734;28;20040;-87
2023/01/13 11:07:33;;;;;;;;;;;11.00;80.40;;;;;;5077367;28;20077;-86
2023/01/13 11:10:26;;;;;;;4.05;1.75;;;11.00;80.20;;;;;;5076083;28;19920;-86
2023/01/13 11:13:35;;;;;;;4.05;1.80;;;11.00;80.30;;;;;;5054981;28;20106;-86
2023/01/13 11:16:15;;;;;;;3.05;1.50;;;11.00;80.30;;;;;;4989026;28;20038;-85
2023/01/13 11:19:01;;;;;;;4.70;1.70;;;11.00;80.30;;;;;;4979510;28;20034;-83
2023/01/13 11:21:51;;;;;;;5.93;1.67;;;11.00;80.40;;;;;;5069225;28;20055;-83
2023/01/13 11:24:38;;;;;;;5.75;2.05;;;11.00;80.40;;;;;;5078695;28;20174;-87
2023/01/13 11:27:28;;;;;;;4.05;1.63;;;11.10;80.50;;;;;;5096188;28;20020;-86
2023/01/13 11:30:23;;;;;;;4.03;1.88;;;11.00;80.40;;;;;;5063653;28;20036;-86
2023/01/13 11:33:14;;;;;;;4.18;1.80;;;11.10;80.50;;;;;;5059217;28;20430;-84
2023/01/13 11:36:01;;;;;;;3.40;1.80;;;11.10;80.50;;;;;;5081282;28;20020;-85
2023/01/13 11:38:39;;;;;;;4.70;1.85;;;11.10;80.50;;;;;;5080295;28;20119;-84
2023/01/13 11:41:20;;;;;;;2.67;1.40;;;11.10;80.40;;;;;;5077058;28;20050;-89
2023/01/13 11:44:00;;;;;;;4.07;1.73;;;11.10;80.60;;;;;;5058992;28;20082;-85
2023/01/13 11:46:27;;;;;;;5.65;2.22;;;11.10;80.50;;;;;;5089227;28;20020;-82
2023/01/13 11:48:55;;;;;;;2.95;1.58;;;11.10;80.50;;;;;;5095336;28;20066;-84
2023/01/13 11:51:31;;;;;;;3.40;1.67;;;11.10;80.50;;;;;;5046461;28;20048;-85
2023/01/13 11:54:18;;;;;;;3.28;1.88;;;11.10;80.50;;;;;;5076032;28;20035;-85
2023/01/13 11:57:11;;;;;;;4.70;1.90;;;11.20;80.60;;;;;;5065514;28;20087;-85
2023/01/13 11:59:46;;;;;;;3.60;1.70;;;11.20;80.50;;;;;;5058779;28;20024;-85
2023/01/13 12:02:20;;;;;;;3.25;1.95;;;11.20;80.40;;;;;;5077158;28;20067;-86
2023/01/13 12:05:18;;;;;;;5.25;1.60;;;11.20;80.40;;;;;;5081572;28;20097;-85
2023/01/13 12:08:12;;;;;;;4.18;1.80;;;11.20;80.50;;;;;;5081847;28;20028;-85
2023/01/13 12:10:50;;;;;;;3.38;1.52;;;11.20;80.40;;;;;;5077988;28;20462;-85
2023/01/13 12:13:19;;;;;;;4.43;2.00;;;11.20;80.40;;;;;;5096716;28;20658;-85
2023/01/13 12:16:04;;;;;;;5.80;2.00;;;11.20;80.40;;;;;;5079308;28;20477;-85
2023/01/13 12:18:52;;;;;;;4.53;1.80;;;11.20;80.50;;;;;;5077841;28;20024;-86
2023/01/13 12:21:21;;;;;;;4.63;1.77;;;11.30;80.50;;;;;;5092048;28;20519;-85
2023/01/13 12:24:12;;;;;;;5.25;1.95;;;11.30;80.40;;;;;;5077360;28;20032;-85
2023/01/13 12:26:46;;;;;;;5.40;2.13;;;11.30;80.50;;;;;;5076382;28;20036;-85
2023/01/13 12:29:17;;;;;;;2.92;1.63;;;11.30;80.50;;;;;;5070140;28;20028;-86
2023/01/13 12:31:48;;;;;;;2.92;1.60;;;11.30;80.50;;;;;;5093712;28;20024;-86
2023/01/13 12:34:31;;;;;;;4.32;1.80;;;11.30;80.50;;;;;;5084418;28;20460;-86
2023/01/13 12:37:11;;;;;;;3.13;1.38;;;11.30;80.50;;;;;;5092492;28;20035;-85
2023/01/13 12:39:59;;;;;;;4.20;1.85;;;11.30;80.40;;;;;;5060405;28;20118;-85
2023/01/13 12:45:15;;;;;;;3.85;1.83;;;11.40;80.40;;;;;;5082065;28;20120;-86
2023/01/13 12:47:43;;;;;;;3.30;1.52;;;11.30;80.40;;;;;;5075770;28;20115;-86
2023/01/13 12:50:21;;;;;;;3.03;1.42;;;11.40;80.40;;;;;;5072894;28;20043;-87
2023/01/13 12:52:48;;;;;;;5.13;1.80;;;11.40;80.50;;;;;;5077291;28;20027;-86
2023/01/13 12:55:18;;;;;;;4.85;1.70;;;11.40;80.40;;;;;;5079971;28;20024;-87
2023/01/13 12:58:03;;;;;;;4.70;2.10;;;11.40;80.40;;;;;;5103092;28;20016;-86
2023/01/13 13:01:12;;;;;;;3.80;1.53;;;11.40;80.40;;;;;;5068422;28;20035;-86
2023/01/13 13:03:38;;;;;;;3.80;1.70;;;11.40;80.40;;;;;;5076834;28;20035;-87
2023/01/13 13:06:12;;;;;;;4.88;1.67;;;11.40;80.30;;;;;;5084735;28;20028;-86
2023/01/13 13:08:44;;;;;;;3.92;1.70;;;11.40;80.40;;;;;;5092667;28;20036;-87
2023/01/13 13:13:59;;;;;;;3.47;1.63;;;11.40;80.40;;;;;;5086886;28;20484;-85
2023/01/13 13:16:25;;;;;;;2.92;1.70;;;11.40;80.30;;;;;;5093746;28;20032;-86
2023/01/13 13:19:11;;;;;;;3.78;1.70;;;11.40;80.40;;;;;;5070818;28;20042;-85
2023/01/13 13:22:11;;;;;;;3.08;1.60;;;11.40;80.40;;;;;;5034699;28;20044;-86
2023/01/13 13:24:41;;;;;;;3.20;1.35;;;11.40;80.40;;;;;;5091212;28;20024;-87
2023/01/13 13:27:33;;;;;;;2.65;1.60;;;11.40;80.30;;;;;;5081615;28;20032;-86
2023/01/13 13:30:01;;;;;;;4.63;1.92;;;11.40;80.40;;;;;;5057819;28;20458;-85
2023/01/13 13:32:36;;;;;;;3.15;1.58;;;11.50;80.40;;;;;;5099853;28;20030;-86
2023/01/13 13:35:01;;;;;;;3.92;1.77;;;11.40;80.40;;;;;;5098803;28;20024;-85
2023/01/13 13:46:45;;;;;;;4.78;1.67;;;11.40;80.40;;;;;;5073374;28;20032;-85
2023/01/13 13:49:32;;;;;;;4.20;1.60;;;11.40;80.30;;;;;;5082474;28;20020;-86
2023/01/13 13:52:35;;;;;;;3.65;1.50;;;11.40;80.40;;;;;;5081353;28;20028;-85
2023/01/13 13:55:12;;;;;;;2.85;1.38;;;11.40;80.40;;;;;;5071847;28;20024;-85
2023/01/13 13:57:41;;;;;;;3.53;1.63;;;11.50;80.40;;;;;;5066886;28;20039;-85
2023/01/13 14:00:44;;;;;;;4.55;1.60;;;11.40;80.40;;;;;;5060311;28;20032;-86
2023/01/13 14:03:24;;;;;;;2.70;1.55;;;11.50;80.50;;;;;;5071382;28;20036;-86
2023/01/13 14:06:03;;;;;;;3.90;1.55;;;11.50;80.50;;;;;;5092186;28;20032;-86
2023/01/13 14:08:32;;;;;;;5.72;2.00;;;11.40;80.40;;;;;;5076301;28;20040;-88
2023/01/13 14:10:58;;;;;;;4.45;1.95;;;11.50;80.40;;;;;;5075949;28;20172;-87
2023/01/13 14:13:31;;;;;;;5.00;1.80;;;11.50;80.40;;;;;;5063368;28;20052;-87
2023/01/13 14:16:01;;;;;;;3.72;1.40;;;11.50;80.40;;;;;;5054763;28;20040;-87
2023/01/13 14:18:29;;;;;;;1.88;1.40;;;11.50;80.40;;;;;;5064180;28;20101;-86
2023/01/13 14:21:02;;;;;;;3.75;1.67;;;11.50;80.40;;;;;;5081041;28;20028;-88